Koeln, Germany

4:30 AM CET on December 28, 2014 (GMT +0100)
Lind | Change Station
CLOSE
Current Station
Personal Weather Station
Location: Koeln, NRW
Elevation: 177 ft
Nearby Weather Stations

Elev 177 ft 50.85 °N, 7.10 °E | Updated 17 seconds ago

Clear
Clear
26.4 °F
Feels Like 22 °F
N
3.4
Wind Variable Wind from NE
Gusts 4.9 mph

Today
High -- | Low -- °F
--% Chance of Precip.
Yesterday
High -- | Low -- °F
Precip. -- in
8:33 AM 4:32 PM
Waxing Crescent, 43% visible
Pressure 29.89 in
Visibility -9999.0 miles
Clouds
Windchill 22 °F
Dew Point 15 °F
Humidity 61%
Rainfall 0.00 in
Snow Depth Not available.
UV 0.0 out of 12
Pollen Not available.
Air Quality Not available.
Flu Activity Not available.
METAR EDDK 280320Z 34005KT CAVOK M05/M08 Q1012 R14L/190195 R14R///99// R06///99// NOSIG

More Conditions Fewer Conditions

Pressure 29.89 in
Visibility -9999.0 miles
Clouds
Windchill 22 °F
Dew Point 15 °F
Humidity 61%
Rainfall 0.00 in
Snow Depth Not available.
UV 0.0 out of 12
Pollen Not available.
Air Quality Not available.
Flu Activity Not available.
METAR EDDK 280320Z 34005KT CAVOK M05/M08 Q1012 R14L/190195 R14R///99// R06///99// NOSIG

More Conditions Fewer Conditions

10-Day Weather Forecast

Almanac

Astronomy

Dec. 28, 2014 Rise Set
Actual Time
Civil Twilight
Nautical Twilight
Astronomical Twilight
Moon
Length of Visible Light
Length of Day
Tomorrow will be .
, % of the Moon is Illuminated

Today's Extremes

Country Highs Country Lows

Community

WunderPhotos

Upload Photos

1,781,180 photos uploaded!

WunderBlogs® & News

Nearby

Air Quality

  Air Quality AQ Index Pollutant
Not available.

Snow Depth

Station Depth Elevation

Earthquake Activity

City Distance Mag. Time & Date
Minimum magnitude displayed is 2.5.

Coastal Water Temperatures

Place Temperature

Nearby Weather Stations